Pagina principale
METAR-TAF:

METAR-TAF

Aeroporti :

Aghajari, Iran

latitudine: 30-46N, longitudine: 049-40E, altezza: 29 m

Osservazione

Il bollettino è stato emesso 1 ora e 28 minuti fa, alle 02:00 UTC
Vento 6 kt da nord
Temperature 27°C
Umidità 24%
Pressione 999 hPa
Visibilità 10 km o più
nessuna nube inferiore a 1500 m e nessun cumulonembo

METAR: OIAG 190200Z 35006KT CAVOK 27/05 Q0999

Ora: 07:58 (03:28 UTC)


TAF: mancante

Osservazioni e previsioni meteorologiche di più di 4000 aeroporti (messaggi METAR e TAF).

Le stazioni disponibili sono rappresentate dai dischi gialli e rossi sulla carta.

Puntare il mouse per vedere il nome della stazione.

Clicca sopra per visualizzare le osservazioni e previsioni meteorologiche.

Per cambiare la mappa : fare clic sui pulsanti verdi con una croce nera per ingrandire, il pulsante verde con un trattino per diminuire, o sulla freccia verde per le mappe adiacenti.


METAR-TAF: